Current Conditions
Overcast
Conditions




Pressure
30.09 (inHG) - 1018.92 (mb)
Visibility

9.9 (mimiles) - 16.0 (km)
   Temperature
21  °F
-6°C
21  °F
Dewpoint
100  %
 Humidity
   Wind Speed
6  mph
5  kts
10  km/h
2.7  m/s
   Wind Direction
 20°
North North
East
   Airport Data
KBUU
Location Burlington Municipal Airport 6 mi (9.65 km)
Metar :KBUU 251615Z AUTO 02005KT 10SM OVC032 M06/M06 A3009 RMK AO2 T10571065 PWINO
Mon 25th January 10:15 am
   Raw Metar Info
Raw METAR is the most common format in the world for the transmission of observational weather data. It is highly standardized through the International Civil Aviation Organization (ICAO), which allows it to be understood throughout most of the world.
   API Info
Data Provided by
https://www.checkwx.com/weather/KBUU
   © Info
CSS/SVG/PHP scripts were developed by weather34.com for use in the weather34 template © 2015-2021

Guide Info provided by Metar-Wikipedia